Time;durP1;ratioP1;P1;durP2;ratioP2;P2;SDS_P1;SDS_P2;PMS_P1;PMS_P2;Temp;Humidity;BMP_temperature;BMP_pressure;BME280_temperature;BME280_humidity;BME280_pressure;Samples;Min_cycle;Max_cycle;Signal;HPM_P1;HPM_P2
2022/07/12 00:01:07;;;;;;;2.55;0.88;;;16.70;99.90;;;;;;5009931;28;20046;-82
2022/07/12 00:03:33;;;;;;;2.47;0.82;;;16.60;99.90;;;;;;4994217;28;20042;-82
2022/07/12 00:06:00;;;;;;;1.80;1.05;;;16.60;99.90;;;;;;4998244;28;20391;-82
2022/07/12 00:08:26;;;;;;;1.50;0.82;;;16.60;99.90;;;;;;4979104;28;20089;-82
2022/07/12 00:10:51;;;;;;;1.83;0.80;;;16.60;99.90;;;;;;4975491;28;20088;-83
2022/07/12 00:13:17;;;;;;;1.70;1.13;;;16.60;99.90;;;;;;5002260;28;20046;-83
2022/07/12 00:15:43;;;;;;;1.98;0.70;;;16.60;99.90;;;;;;4989540;28;20046;-82
2022/07/12 00:18:09;;;;;;;1.77;0.93;;;16.60;99.90;;;;;;4990403;28;20089;-83
2022/07/12 00:20:36;;;;;;;1.40;0.52;;;16.50;99.90;;;;;;4994155;28;20088;-82
2022/07/12 00:23:02;;;;;;;1.30;0.85;;;16.50;99.90;;;;;;5002186;28;20095;-83
2022/07/12 00:25:28;;;;;;;1.52;0.80;;;16.50;99.90;;;;;;4989704;28;20042;-83
2022/07/12 00:27:53;;;;;;;1.10;0.50;;;16.50;99.90;;;;;;4977989;28;20073;-83
2022/07/12 00:30:19;;;;;;;1.95;0.95;;;16.40;99.90;;;;;;4999412;28;20041;-82
2022/07/12 00:32:45;;;;;;;1.55;0.75;;;16.30;99.90;;;;;;4996547;28;20035;-82
2022/07/12 00:35:11;;;;;;;1.70;0.63;;;16.20;99.90;;;;;;5000572;28;20041;-82
2022/07/12 00:37:37;;;;;;;1.67;0.40;;;16.30;99.90;;;;;;4985252;28;20068;-82
2022/07/12 00:40:08;;;;;;;1.58;0.68;;;16.20;99.90;;;;;;5005327;28;20049;-81
2022/07/12 00:42:38;;;;;;;1.15;0.52;;;16.20;99.90;;;;;;5004768;28;20038;-82
2022/07/12 00:45:05;;;;;;;1.45;0.60;;;16.10;99.90;;;;;;4995644;28;20043;-82
2022/07/12 00:47:37;;;;;;;1.05;0.55;;;16.00;99.90;;;;;;5001402;28;20110;-81
2022/07/12 00:50:14;;;;;;;1.10;0.30;;;16.00;99.90;;;;;;4992026;28;20509;-82
2022/07/12 00:52:41;;;;;;;2.13;0.50;;;15.90;99.90;;;;;;5004564;28;20057;-82
2022/07/12 00:55:08;;;;;;;1.48;0.60;;;15.90;99.90;;;;;;5000683;28;20100;-81
2022/07/12 00:57:36;;;;;;;1.45;0.52;;;15.90;99.90;;;;;;4994845;28;20042;-81
2022/07/12 01:00:04;;;;;;;1.98;0.43;;;15.90;99.90;;;;;;4995182;28;20055;-82
2022/07/12 01:02:30;;;;;;;1.27;0.70;;;15.80;99.90;;;;;;4988562;28;20053;-81
2022/07/12 01:04:57;;;;;;;1.67;1.05;;;15.80;99.90;;;;;;4974814;28;20046;-81
2022/07/12 01:07:24;;;;;;;1.25;0.50;;;15.80;99.90;;;;;;4985092;28;20046;-82
2022/07/12 01:09:53;;;;;;;2.20;0.85;;;15.70;99.90;;;;;;4968757;28;20057;-82
2022/07/12 01:12:20;;;;;;;1.60;0.60;;;15.60;99.90;;;;;;4988445;28;20034;-82
2022/07/12 01:14:46;;;;;;;1.77;0.65;;;15.50;99.90;;;;;;4984594;28;20547;-83
2022/07/12 01:17:13;;;;;;;2.42;0.80;;;15.50;99.90;;;;;;4990420;28;20505;-82
2022/07/12 01:19:38;;;;;;;2.45;0.60;;;15.40;99.90;;;;;;4983093;28;20042;-82
2022/07/12 01:22:09;;;;;;;1.13;0.50;;;15.30;99.90;;;;;;4976976;28;20113;-82
2022/07/12 01:24:35;;;;;;;2.25;1.10;;;15.30;99.90;;;;;;5021886;28;20048;-82
2022/07/12 01:27:03;;;;;;;2.78;1.05;;;15.20;99.90;;;;;;4989313;28;20400;-82
2022/07/12 01:29:30;;;;;;;1.40;0.60;;;15.10;99.90;;;;;;4999072;28;20106;-82
2022/07/12 01:32:24;;;;;;;2.25;1.33;;;15.00;99.90;;;;;;4986061;28;20033;-82
2022/07/12 01:34:42;;;;;;;1.30;0.55;;;14.90;99.90;;;;;;4984984;28;20053;-82
2022/07/12 01:37:09;;;;;;;2.30;1.00;;;14.80;99.90;;;;;;4986259;28;20050;-82
2022/07/12 01:39:35;;;;;;;1.90;0.88;;;14.70;99.90;;;;;;5001014;28;20038;-83
2022/07/12 01:42:01;;;;;;;1.65;0.80;;;14.60;99.90;;;;;;5001588;28;20034;-81
2022/07/12 01:44:27;;;;;;;2.60;1.30;;;14.60;99.90;;;;;;4978974;28;20140;-81
2022/07/12 01:46:52;;;;;;;1.50;0.70;;;14.60;99.90;;;;;;4998990;28;20373;-81
2022/07/12 01:49:18;;;;;;;1.38;0.95;;;14.50;99.90;;;;;;5003505;28;20504;-81
2022/07/12 01:51:43;;;;;;;2.38;0.60;;;14.50;99.90;;;;;;4990761;28;20361;-80
2022/07/12 01:54:09;;;;;;;1.63;0.73;;;14.40;99.90;;;;;;4994236;28;20049;-81
2022/07/12 01:56:36;;;;;;;1.50;0.70;;;14.40;99.90;;;;;;4992801;28;20116;-82
2022/07/12 01:59:01;;;;;;;1.63;0.50;;;14.30;99.90;;;;;;4983621;28;20054;-81
2022/07/12 02:01:28;;;;;;;1.63;0.57;;;14.30;99.90;;;;;;4998411;28;20044;-82
2022/07/12 02:03:54;;;;;;;1.67;0.80;;;14.30;99.90;;;;;;4994880;28;20045;-81
2022/07/12 02:06:20;;;;;;;2.55;1.65;;;14.30;99.90;;;;;;4995906;28;20041;-81
2022/07/12 02:08:45;;;;;;;3.45;1.42;;;14.20;99.90;;;;;;4992694;28;20121;-81
2022/07/12 02:11:11;;;;;;;3.30;1.17;;;14.10;99.90;;;;;;4982219;28;20601;-83
2022/07/12 02:13:37;;;;;;;3.22;0.98;;;14.00;99.90;;;;;;4990066;28;20034;-83
2022/07/12 02:16:04;;;;;;;2.47;1.27;;;14.00;99.90;;;;;;4987186;28;20052;-83
2022/07/12 02:18:32;;;;;;;1.80;0.90;;;14.00;99.90;;;;;;4992411;28;20042;-83
2022/07/12 02:20:58;;;;;;;3.42;1.02;;;13.90;99.90;;;;;;4998509;28;20400;-83
2022/07/12 02:23:23;;;;;;;3.95;1.63;;;13.90;99.90;;;;;;4996751;28;20081;-83
2022/07/12 02:25:49;;;;;;;5.50;1.42;;;13.80;99.90;;;;;;4990945;28;20038;-83
2022/07/12 02:28:14;;;;;;;2.83;0.82;;;13.80;99.90;;;;;;4988760;28;20034;-84
2022/07/12 02:30:40;;;;;;;2.50;0.90;;;13.80;99.90;;;;;;4980941;28;20065;-83
2022/07/12 02:33:05;;;;;;;2.20;0.50;;;13.70;99.90;;;;;;4993552;28;20107;-83
2022/07/12 02:35:31;;;;;;;2.08;0.60;;;13.70;99.90;;;;;;4993585;28;20041;-83
2022/07/12 02:37:56;;;;;;;1.75;0.50;;;13.60;99.90;;;;;;4993476;28;20124;-83
2022/07/12 02:43:06;;;;;;;2.88;0.70;;;13.40;99.90;;;;;;4999361;28;20046;-83
2022/07/12 02:45:32;;;;;;;1.35;0.40;;;13.30;99.90;;;;;;4995916;28;20414;-83
2022/07/12 02:47:57;;;;;;;1.10;0.32;;;13.20;99.90;;;;;;5000233;28;20034;-84
2022/07/12 02:50:23;;;;;;;1.15;0.40;;;13.10;99.90;;;;;;4983028;28;20057;-83
2022/07/12 02:52:49;;;;;;;2.13;0.30;;;13.00;99.90;;;;;;4990932;28;20387;-84
2022/07/12 02:55:14;;;;;;;2.00;0.45;;;12.90;99.90;;;;;;4999327;28;20050;-83
2022/07/12 02:57:40;;;;;;;1.50;0.70;;;12.80;99.90;;;;;;4986680;28;20045;-83
2022/07/12 03:00:07;;;;;;;1.45;0.52;;;12.70;99.90;;;;;;4990692;28;20065;-83
2022/07/12 03:02:33;;;;;;;1.13;0.20;;;12.70;99.90;;;;;;4998017;28;20073;-84
2022/07/12 03:04:58;;;;;;;1.60;0.20;;;12.60;99.90;;;;;;4990825;28;20068;-84
2022/07/12 03:07:24;;;;;;;0.60;0.22;;;12.50;99.90;;;;;;4998799;28;20045;-84
2022/07/12 03:09:50;;;;;;;0.63;0.25;;;12.50;99.90;;;;;;4981778;28;20069;-84
2022/07/12 03:12:15;;;;;;;0.55;0.13;;;12.50;99.90;;;;;;4996557;28;20045;-84
2022/07/12 03:14:41;;;;;;;2.08;0.30;;;12.40;99.90;;;;;;4985497;28;20169;-84
2022/07/12 03:17:07;;;;;;;0.50;0.20;;;12.40;99.90;;;;;;4986378;28;20061;-84
2022/07/12 03:19:32;;;;;;;1.10;0.55;;;12.50;99.90;;;;;;4979586;28;20034;-84
2022/07/12 03:21:58;;;;;;;0.60;0.20;;;12.40;99.90;;;;;;4980660;28;20370;-84
2022/07/12 03:24:23;;;;;;;1.73;0.20;;;12.40;99.90;;;;;;4979088;28;20544;-84
2022/07/12 03:26:51;;;;;;;0.95;0.30;;;12.40;99.90;;;;;;4976923;28;20070;-84
2022/07/12 03:29:16;;;;;;;1.15;0.40;;;12.40;99.90;;;;;;4990208;28;20034;-84
2022/07/12 03:31:42;;;;;;;2.15;0.35;;;12.40;99.90;;;;;;4963608;28;20035;-84
2022/07/12 03:34:07;;;;;;;3.90;0.75;;;12.40;99.90;;;;;;4989509;28;20030;-84
2022/07/12 03:36:33;;;;;;;4.72;0.98;;;12.40;99.90;;;;;;4980141;28;20046;-83
2022/07/12 03:38:58;;;;;;;5.07;1.20;;;12.40;99.90;;;;;;4981117;28;20077;-83
2022/07/12 03:41:24;;;;;;;3.03;1.10;;;12.30;99.90;;;;;;4986882;28;20042;-84
2022/07/12 03:43:49;;;;;;;4.93;0.60;;;12.30;99.90;;;;;;4988709;28;20038;-84
2022/07/12 03:46:15;;;;;;;12.73;1.55;;;12.30;99.90;;;;;;4993049;28;20125;-84
2022/07/12 03:48:40;;;;;;;5.28;0.50;;;12.20;99.90;;;;;;4981295;28;20045;-84
2022/07/12 03:51:06;;;;;;;4.22;0.38;;;12.10;99.90;;;;;;4996892;28;20034;-84
2022/07/12 03:53:32;;;;;;;1.30;0.40;;;12.10;99.90;;;;;;4979034;28;20140;-84
2022/07/12 03:55:57;;;;;;;3.22;0.38;;;12.10;99.90;;;;;;4986479;28;20081;-85
2022/07/12 03:58:23;;;;;;;23.83;1.48;;;12.20;99.90;;;;;;4961548;28;20198;-84
2022/07/12 04:00:48;;;;;;;3.83;0.30;;;12.20;99.90;;;;;;4988095;28;20048;-85
2022/07/12 04:03:14;;;;;;;2.90;0.32;;;12.30;99.90;;;;;;4986735;28;20125;-85
2022/07/12 04:05:39;;;;;;;4.78;0.28;;;12.30;99.90;;;;;;4988026;28;20129;-85
2022/07/12 04:08:05;;;;;;;5.82;0.45;;;12.40;99.90;;;;;;4983859;28;20093;-85
2022/07/12 04:11:11;;;;;;;6.15;0.40;;;12.40;99.90;;;;;;4999414;23;20050;-85
2022/07/12 04:22:08;;;;;;;16.33;0.50;;;12.50;99.90;;;;;;4818782;29;20049;-85
2022/07/12 04:33:32;;;;;;;59.85;3.25;;;12.50;99.90;;;;;;5031486;28;20049;-85
2022/07/12 04:44:13;;;;;;;8.13;0.40;;;12.50;99.90;;;;;;4914312;29;20050;-84
2022/07/12 04:46:51;;;;;;;7.80;0.68;;;12.60;99.90;;;;;;4953141;28;20089;-83
2022/07/12 04:49:17;;;;;;;14.18;0.88;;;12.70;99.90;;;;;;5004195;28;20655;-84
2022/07/12 04:51:47;;;;;;;8.45;0.50;;;12.70;99.90;;;;;;5015186;28;20175;-84
2022/07/12 04:54:18;;;;;;;1.58;0.47;;;12.70;99.90;;;;;;5014502;28;20037;-85
2022/07/12 04:57:05;;;;;;;12.88;0.85;;;12.80;99.90;;;;;;5017202;28;20457;-84
2022/07/12 04:59:33;;;;;;;15.88;1.23;;;13.00;99.90;;;;;;5033575;28;20036;-85
2022/07/12 05:02:00;;;;;;;18.58;1.15;;;13.10;99.90;;;;;;5032323;28;20572;-84
2022/07/12 05:04:26;;;;;;;4.72;0.50;;;13.20;99.90;;;;;;5033120;28;20111;-84
2022/07/12 05:06:52;;;;;;;2.88;0.40;;;13.30;99.90;;;;;;5032554;28;20171;-84
2022/07/12 05:09:18;;;;;;;0.90;0.40;;;13.30;99.90;;;;;;5016537;28;20032;-84
2022/07/12 05:11:44;;;;;;;0.75;0.22;;;13.40;99.90;;;;;;5035023;28;20443;-85
2022/07/12 05:14:09;;;;;;;2.65;0.57;;;13.50;99.90;;;;;;5036044;28;20091;-84
2022/07/12 05:16:35;;;;;;;2.67;0.80;;;13.60;99.90;;;;;;5019654;28;20040;-85
2022/07/12 05:19:01;;;;;;;3.90;0.88;;;13.60;99.90;;;;;;5036375;28;20047;-86
2022/07/12 05:21:26;;;;;;;3.70;1.40;;;13.80;99.90;;;;;;5036290;28;20130;-86
2022/07/12 05:23:52;;;;;;;6.90;1.08;;;13.90;99.90;;;;;;5035378;28;20531;-85
2022/07/12 05:26:18;;;;;;;3.97;0.80;;;14.00;99.90;;;;;;5035716;28;20048;-85
2022/07/12 05:28:44;;;;;;;2.15;1.10;;;14.10;99.90;;;;;;5035741;28;20434;-85
2022/07/12 05:31:11;;;;;;;3.17;2.08;;;14.10;99.90;;;;;;5035119;28;20064;-85
2022/07/12 05:33:36;;;;;;;3.30;1.88;;;14.00;99.90;;;;;;5035312;28;20095;-85
2022/07/12 05:36:02;;;;;;;3.08;1.23;;;14.10;99.90;;;;;;5035567;28;20045;-85
2022/07/12 05:38:27;;;;;;;2.50;1.70;;;14.10;99.90;;;;;;5035057;28;20108;-85
2022/07/12 05:40:53;;;;;;;2.70;1.63;;;14.10;99.90;;;;;;5035343;28;20454;-85
2022/07/12 05:43:18;;;;;;;3.13;1.73;;;14.20;99.90;;;;;;5035121;28;20503;-85
2022/07/12 05:45:44;;;;;;;2.67;1.75;;;14.20;99.90;;;;;;5035299;28;20051;-85
2022/07/12 05:48:10;;;;;;;2.85;1.75;;;14.30;99.90;;;;;;5034967;28;20041;-85
2022/07/12 05:50:36;;;;;;;2.25;1.30;;;14.40;99.90;;;;;;5034992;28;20037;-85
2022/07/12 05:53:22;;;;;;;3.15;1.70;;;14.70;99.90;;;;;;5035024;28;20049;-84
2022/07/12 05:55:49;;;;;;;3.85;2.53;;;14.70;99.90;;;;;;5018809;28;20336;-85
2022/07/12 05:58:15;;;;;;;3.17;2.28;;;14.90;99.90;;;;;;5034765;28;20037;-85
2022/07/12 06:00:44;;;;;;;5.55;3.42;;;15.20;99.90;;;;;;5034965;28;20071;-85
2022/07/12 06:03:10;;;;;;;4.65;3.60;;;15.30;99.90;;;;;;5035098;28;20040;-85
2022/07/12 06:05:35;;;;;;;5.63;3.83;;;15.60;99.90;;;;;;5034723;28;20041;-86
2022/07/12 06:08:01;;;;;;;6.03;4.20;;;15.80;99.90;;;;;;5035116;28;20044;-86
2022/07/12 06:10:27;;;;;;;6.47;4.60;;;16.00;99.90;;;;;;5034876;28;20036;-87
2022/07/12 06:12:53;;;;;;;4.57;3.08;;;16.20;99.90;;;;;;5034654;28;20043;-87
2022/07/12 06:15:18;;;;;;;6.05;3.63;;;16.30;99.90;;;;;;5035167;28;20403;-86
2022/07/12 06:17:44;;;;;;;4.97;3.78;;;16.30;99.90;;;;;;5035064;28;20043;-86
2022/07/12 06:20:10;;;;;;;8.50;4.15;;;16.50;99.90;;;;;;5034058;28;20403;-86
2022/07/12 06:22:36;;;;;;;13.48;5.78;;;16.60;99.90;;;;;;5034289;28;20122;-87
2022/07/12 06:25:01;;;;;;;6.53;4.43;;;16.80;99.90;;;;;;5034904;28;20438;-87
2022/07/12 06:27:27;;;;;;;12.77;5.15;;;16.90;99.90;;;;;;5034776;28;20047;-87
2022/07/12 06:29:52;;;;;;;10.65;5.13;;;17.10;99.90;;;;;;5034625;28;20106;-87
2022/07/12 06:32:18;;;;;;;11.07;4.95;;;17.30;99.90;;;;;;5034272;28;20047;-86
2022/07/12 06:34:44;;;;;;;20.85;6.15;;;17.40;99.90;;;;;;5034613;28;20047;-85
2022/07/12 06:37:09;;;;;;;10.48;5.03;;;17.50;99.90;;;;;;5034887;28;20403;-87
2022/07/12 06:39:36;;;;;;;11.43;4.70;;;17.70;99.90;;;;;;5034468;28;20059;-86
2022/07/12 06:42:03;;;;;;;11.10;4.68;;;17.90;99.90;;;;;;5033858;28;20435;-87
2022/07/12 06:44:30;;;;;;;7.70;4.53;;;18.00;99.90;;;;;;5033436;28;20076;-86
2022/07/12 06:46:56;;;;;;;8.50;5.25;;;18.30;99.90;;;;;;5033929;28;20047;-87
2022/07/12 06:49:22;;;;;;;9.73;4.97;;;18.40;99.90;;;;;;5033967;28;20111;-87
2022/07/12 06:51:47;;;;;;;8.93;5.18;;;18.50;99.90;;;;;;5034356;28;20040;-86
2022/07/12 06:54:13;;;;;;;8.75;5.32;;;18.70;99.90;;;;;;5018381;28;20483;-86
2022/07/12 06:56:38;;;;;;;10.18;4.43;;;18.70;99.90;;;;;;5034434;28;20063;-87
2022/07/12 06:59:04;;;;;;;8.05;4.75;;;18.90;99.90;;;;;;5017842;28;20113;-87
2022/07/12 07:01:30;;;;;;;5.68;4.22;;;19.00;99.90;;;;;;5017927;28;20045;-86
2022/07/12 07:03:56;;;;;;;6.97;5.05;;;19.20;99.90;;;;;;5033891;28;20068;-87
2022/07/12 07:06:21;;;;;;;9.63;4.43;;;19.30;99.90;;;;;;5017919;28;20086;-85
2022/07/12 07:08:47;;;;;;;5.45;4.07;;;19.40;99.90;;;;;;5033880;28;20491;-84
2022/07/12 07:11:12;;;;;;;6.78;4.35;;;19.50;99.90;;;;;;5033898;28;20029;-85
2022/07/12 07:13:38;;;;;;;7.00;5.25;;;19.60;99.90;;;;;;5033928;28;20037;-84
2022/07/12 07:16:05;;;;;;;9.93;5.15;;;19.60;99.90;;;;;;5017396;28;20052;-85
2022/07/12 07:18:34;;;;;;;9.98;4.47;;;19.60;99.90;;;;;;5055388;22;20278;-85
2022/07/12 07:22:03;;;;;;;8.57;5.10;;;19.80;99.90;;;;;;5015220;28;20038;-87
2022/07/12 07:59:15;;;;;;;4.65;2.83;;;22.20;99.90;;;;;;5033312;28;20095;-86
2022/07/12 08:01:45;;;;;;;3.45;3.08;;;22.60;99.90;;;;;;5000947;28;20033;-86
2022/07/12 08:04:15;;;;;;;5.43;3.95;;;22.90;99.90;;;;;;5017361;28;20518;-86
2022/07/12 08:06:41;;;;;;;3.53;3.22;;;23.00;99.90;;;;;;5000582;28;20084;-85
2022/07/12 08:09:08;;;;;;;3.58;2.75;;;23.20;99.90;;;;;;5016756;28;20245;-85
2022/07/12 08:11:34;;;;;;;3.28;2.97;;;23.40;99.90;;;;;;5000756;28;20129;-86
2022/07/12 08:14:00;;;;;;;3.60;2.38;;;23.60;99.90;;;;;;4998708;28;20128;-85
2022/07/12 08:16:25;;;;;;;3.22;2.92;;;23.80;99.90;;;;;;5016873;28;20041;-85
2022/07/12 08:18:51;;;;;;;4.65;2.97;;;23.90;99.90;;;;;;5016762;28;20041;-85
2022/07/12 08:21:17;;;;;;;3.58;2.80;;;24.20;99.90;;;;;;5000189;28;20041;-85
2022/07/12 08:23:43;;;;;;;4.57;3.97;;;24.30;99.90;;;;;;5017608;28;20155;-84
2022/07/12 08:26:08;;;;;;;4.60;3.58;;;24.30;99.90;;;;;;5016728;28;20040;-84
2022/07/12 08:28:34;;;;;;;3.25;2.95;;;24.40;99.90;;;;;;4998884;28;20550;-84
2022/07/12 08:30:59;;;;;;;3.88;3.30;;;24.50;99.90;;;;;;5018596;28;20124;-85
2022/07/12 08:33:25;;;;;;;6.38;3.75;;;24.60;99.90;;;;;;5017122;28;20046;-84
2022/07/12 08:35:51;;;;;;;4.20;2.75;;;24.90;99.90;;;;;;5035204;28;20033;-84
2022/07/12 08:38:16;;;;;;;3.17;2.47;;;25.10;99.90;;;;;;5017589;28;20037;-83
2022/07/12 08:40:42;;;;;;;5.72;3.92;;;25.30;99.90;;;;;;5018489;28;20096;-84
2022/07/12 08:43:08;;;;;;;11.98;3.97;;;25.50;99.90;;;;;;5018784;28;20080;-83
2022/07/12 08:45:33;;;;;;;5.40;3.05;;;25.70;99.90;;;;;;5012283;28;20038;-83
2022/07/12 08:47:59;;;;;;;3.75;3.33;;;25.90;99.90;;;;;;4998405;28;20045;-83
2022/07/12 08:50:26;;;;;;;3.20;2.30;;;26.10;99.90;;;;;;5018260;28;20089;-82
2022/07/12 08:52:53;;;;;;;3.38;2.50;;;26.00;99.90;;;;;;5018131;28;20065;-83
2022/07/12 08:55:31;;;;;;;2.80;1.40;;;25.90;99.90;;;;;;5018622;28;20041;-83
2022/07/12 08:57:59;;;;;;;4.00;1.20;;;25.90;99.90;;;;;;5002194;28;20041;-83
2022/07/12 09:00:26;;;;;;;2.30;1.30;;;26.00;99.90;;;;;;5001733;28;20132;-83
2022/07/12 09:03:03;;;;;;;2.40;1.23;;;25.90;99.90;;;;;;5017799;28;20095;-83
2022/07/12 09:05:34;;;;;;;3.92;1.75;;;25.70;99.90;;;;;;5017404;28;20053;-82
2022/07/12 09:08:03;;;;;;;2.85;1.52;;;25.60;99.90;;;;;;5016939;28;20530;-83
2022/07/12 09:10:29;;;;;;;1.98;1.00;;;25.60;99.90;;;;;;5000553;28;20120;-83
2022/07/12 09:12:55;;;;;;;1.52;0.68;;;25.60;99.90;;;;;;5017151;28;20135;-82
2022/07/12 09:15:22;;;;;;;0.93;0.60;;;25.70;99.90;;;;;;5006622;28;20050;-82
2022/07/12 09:18:04;;;;;;;1.75;0.50;;;25.90;99.90;;;;;;5002117;28;20042;-82
2022/07/12 09:20:33;;;;;;;1.30;0.68;;;26.00;99.90;;;;;;5002615;28;20099;-83
2022/07/12 09:23:10;;;;;;;1.77;0.30;;;25.90;99.90;;;;;;5003183;28;20123;-82
2022/07/12 09:25:36;;;;;;;0.90;0.55;;;25.90;99.90;;;;;;5001759;28;20048;-82
2022/07/12 09:28:07;;;;;;;0.75;0.20;;;26.20;99.90;;;;;;5002261;28;20087;-83
2022/07/12 09:30:34;;;;;;;2.17;0.73;;;26.40;99.90;;;;;;5003903;28;20318;-82
2022/07/12 09:36:10;;;;;;;1.20;0.30;;;27.10;99.90;;;;;;5002414;28;20050;-83
2022/07/12 09:38:39;;;;;;;0.73;0.30;;;27.10;99.90;;;;;;5002776;28;20050;-82
2022/07/12 09:41:07;;;;;;;2.22;0.50;;;27.00;99.90;;;;;;5000289;28;20053;-82
2022/07/12 09:43:33;;;;;;;0.95;0.47;;;26.90;99.40;;;;;;5001789;28;20042;-82
2022/07/12 09:45:59;;;;;;;0.80;0.40;;;26.60;99.00;;;;;;4984608;28;20053;-82
2022/07/12 09:48:27;;;;;;;2.00;0.70;;;26.50;99.50;;;;;;5000097;28;20042;-82
2022/07/12 09:50:54;;;;;;;0.98;0.60;;;26.60;99.40;;;;;;5001018;28;20042;-81
2022/07/12 09:53:38;;;;;;;2.40;0.40;;;26.70;99.60;;;;;;5000199;28;20045;-83
2022/07/12 09:56:06;;;;;;;1.20;0.60;;;26.90;99.20;;;;;;5017419;28;20179;-83
2022/07/12 09:58:53;;;;;;;1.00;0.70;;;27.20;99.30;;;;;;5002516;28;20042;-82
2022/07/12 10:01:19;;;;;;;2.45;0.70;;;27.60;98.80;;;;;;5019408;28;20049;-83
2022/07/12 10:03:45;;;;;;;1.30;0.60;;;27.70;99.10;;;;;;5019034;28;20048;-82
2022/07/12 10:06:13;;;;;;;0.80;0.40;;;27.90;97.00;;;;;;5019317;28;20041;-82
2022/07/12 10:08:40;;;;;;;1.40;1.02;;;28.00;98.10;;;;;;5019134;28;20041;-83
2022/07/12 10:11:06;;;;;;;3.15;1.08;;;28.20;96.80;;;;;;5003292;28;20063;-83
2022/07/12 10:13:33;;;;;;;1.00;0.40;;;28.20;95.20;;;;;;5014405;28;20038;-83
2022/07/12 10:16:02;;;;;;;1.08;0.75;;;28.20;95.60;;;;;;4999603;28;20050;-83
2022/07/12 10:18:29;;;;;;;1.33;0.40;;;28.20;93.80;;;;;;5000854;28;20134;-84
2022/07/12 10:20:55;;;;;;;1.50;0.68;;;28.30;95.40;;;;;;5000295;28;20469;-83
2022/07/12 10:23:35;;;;;;;1.65;0.73;;;28.50;94.00;;;;;;4999786;28;20095;-83
2022/07/12 10:26:14;;;;;;;2.58;0.80;;;28.60;91.80;;;;;;5000357;28;20046;-83
2022/07/12 10:29:09;;;;;;;0.90;0.40;;;28.50;90.80;;;;;;5008958;28;20107;-83
2022/07/12 10:31:35;;;;;;;;;;;28.50;87.60;;;;;;5037426;28;20057;-83
2022/07/12 10:34:22;;;;;;;1.65;0.60;;;28.60;91.90;;;;;;5018176;28;19971;-85
2022/07/12 10:36:56;;;;;;;2.30;0.50;;;29.10;93.50;;;;;;5014368;28;20045;-85
2022/07/12 10:39:24;;;;;;;1.17;0.52;;;29.30;92.40;;;;;;5014408;28;20120;-84
2022/07/12 10:42:07;;;;;;;0.52;0.20;;;29.40;91.20;;;;;;5014500;28;20571;-85
2022/07/12 10:44:41;;;;;;;1.10;0.57;;;29.40;86.50;;;;;;4996757;28;20048;-85
2022/07/12 10:47:08;;;;;;;1.25;0.20;;;29.20;90.00;;;;;;4994679;28;20049;-85
2022/07/12 10:49:35;;;;;;;1.55;0.40;;;29.10;92.10;;;;;;4994851;28;20050;-85
2022/07/12 10:52:10;;;;;;;0.98;0.60;;;29.10;90.80;;;;;;4994786;28;20045;-84
2022/07/12 10:55:02;;;;;;;1.33;0.28;;;29.20;88.60;;;;;;4994296;28;20088;-85
2022/07/12 10:57:39;;;;;;;0.88;0.30;;;29.20;86.20;;;;;;4965023;28;20112;-85
2022/07/12 11:00:07;;;;;;;1.08;0.40;;;29.40;87.20;;;;;;4994462;28;20124;-85
2022/07/12 11:02:33;;;;;;;0.52;0.20;;;29.60;87.10;;;;;;4994404;28;20042;-85
2022/07/12 11:04:58;;;;;;;1.27;0.50;;;29.80;85.40;;;;;;4994957;28;20088;-85
2022/07/12 11:07:24;;;;;;;0.88;0.20;;;29.80;86.40;;;;;;4994536;28;20038;-85
2022/07/12 11:09:55;;;;;;;1.27;0.43;;;29.80;87.90;;;;;;4978157;28;20129;-85
2022/07/12 11:12:26;;;;;;;0.45;0.20;;;30.00;86.50;;;;;;4994838;28;20069;-85
2022/07/12 11:14:52;;;;;;;0.60;0.20;;;30.10;84.40;;;;;;4994746;28;20041;-84
2022/07/12 11:17:25;;;;;;;0.77;0.30;;;30.30;85.80;;;;;;4994081;28;20053;-85
2022/07/12 11:20:09;;;;;;;0.20;0.10;;;30.60;82.00;;;;;;4977848;28;20060;-85
2022/07/12 11:22:39;;;;;;;0.98;0.38;;;30.60;81.20;;;;;;4994252;28;20114;-85
2022/07/12 11:25:07;;;;;;;0.47;0.20;;;30.40;77.80;;;;;;4994616;28;20531;-86
2022/07/12 11:27:33;;;;;;;1.40;0.20;;;30.10;76.80;;;;;;4994605;28;20038;-85
2022/07/12 11:30:00;;;;;;;0.50;0.20;;;29.90;80.90;;;;;;4995779;28;20073;-85
2022/07/12 11:32:40;;;;;;;0.98;0.32;;;29.90;79.50;;;;;;5015404;28;20041;-86
2022/07/12 11:35:23;;;;;;;1.45;0.20;;;29.80;76.70;;;;;;4998240;28;20128;-85
2022/07/12 11:37:56;;;;;;;1.48;0.20;;;29.60;79.40;;;;;;4998237;28;20034;-86
2022/07/12 11:40:28;;;;;;;0.80;0.10;;;29.70;79.60;;;;;;4998015;28;20034;-85
2022/07/12 11:42:56;;;;;;;1.10;0.20;;;30.00;82.70;;;;;;5007243;28;20095;-85
2022/07/12 11:45:21;;;;;;;1.00;0.30;;;30.20;79.80;;;;;;4998578;28;20049;-85
2022/07/12 11:47:47;;;;;;;0.60;0.10;;;30.30;81.00;;;;;;4997923;28;20063;-85
2022/07/12 11:50:17;;;;;;;0.40;0.10;;;30.20;79.80;;;;;;4998125;28;20057;-85
2022/07/12 11:52:43;;;;;;;0.88;0.10;;;30.10;78.30;;;;;;4998013;28;20392;-85
2022/07/12 11:55:09;;;;;;;1.42;0.10;;;29.70;75.40;;;;;;4998241;28;20041;-85
2022/07/12 11:57:34;;;;;;;1.17;0.10;;;29.40;75.30;;;;;;4981341;28;20037;-85
2022/07/12 12:00:32;;;;;;;0.50;0.10;;;29.20;76.40;;;;;;4997333;28;20088;-85
2022/07/12 12:02:58;;;;;;;0.40;0.10;;;29.40;77.90;;;;;;4954833;28;20046;-84
2022/07/12 12:05:24;;;;;;;0.88;0.10;;;29.50;76.80;;;;;;4997750;28;20049;-85
2022/07/12 12:07:49;;;;;;;1.02;0.10;;;29.90;75.00;;;;;;4997573;28;20052;-85
2022/07/12 12:10:16;;;;;;;0.52;0.10;;;30.20;75.70;;;;;;4997392;28;20045;-86
2022/07/12 12:12:53;;;;;;;0.40;0.10;;;30.20;75.30;;;;;;4991751;28;20041;-86
2022/07/12 12:15:20;;;;;;;1.15;0.10;;;30.40;76.20;;;;;;5017193;28;20099;-85
2022/07/12 12:17:58;;;;;;;0.75;0.10;;;30.40;76.70;;;;;;5017260;28;20120;-85
2022/07/12 12:20:27;;;;;;;0.63;0.17;;;30.80;76.10;;;;;;5017633;28;20539;-85
2022/07/12 12:22:54;;;;;;;0.68;0.17;;;31.20;75.40;;;;;;5000628;28;20121;-86
2022/07/12 12:25:21;;;;;;;0.30;0.10;;;31.40;76.40;;;;;;5017229;28;20049;-85
2022/07/12 12:27:49;;;;;;;1.15;0.30;;;31.70;75.80;;;;;;5002899;28;20038;-86
2022/07/12 12:30:16;;;;;;;0.43;0.10;;;32.00;73.70;;;;;;4981298;28;20397;-85
2022/07/12 12:32:46;;;;;;;1.80;0.20;;;32.50;71.60;;;;;;4997171;28;20124;-86
2022/07/12 12:35:13;;;;;;;0.30;0.10;;;32.80;71.40;;;;;;4997383;28;20092;-86
2022/07/12 12:37:40;;;;;;;0.65;0.10;;;32.90;68.60;;;;;;4998175;28;20038;-86
2022/07/12 12:40:06;;;;;;;0.77;0.20;;;32.70;66.20;;;;;;4997439;28;20045;-86
2022/07/12 12:42:32;;;;;;;0.35;0.20;;;32.60;64.50;;;;;;5007626;28;20045;-86
2022/07/12 12:44:58;;;;;;;1.05;0.20;;;32.20;64.90;;;;;;5013941;28;20042;-84
2022/07/12 12:47:33;;;;;;;0.40;0.10;;;32.10;66.10;;;;;;5008391;28;20033;-84
2022/07/12 12:50:02;;;;;;;1.45;0.08;;;32.10;68.10;;;;;;5010751;28;20080;-84
2022/07/12 12:52:29;;;;;;;1.08;0.13;;;32.30;66.30;;;;;;5003650;28;20038;-84
2022/07/12 12:54:56;;;;;;;1.00;0.20;;;32.50;65.70;;;;;;4996853;28;20053;-84
2022/07/12 12:57:24;;;;;;;0.70;0.10;;;32.80;66.20;;;;;;4996796;28;20095;-84
2022/07/12 12:59:50;;;;;;;0.50;0.32;;;33.30;65.50;;;;;;4997305;28;20038;-84
2022/07/12 13:02:15;;;;;;;0.57;0.13;;;33.40;64.40;;;;;;5004512;28;20489;-85
2022/07/12 13:04:41;;;;;;;0.40;0.10;;;33.20;62.50;;;;;;5003833;28;20242;-84
2022/07/12 13:07:07;;;;;;;0.55;0.17;;;32.80;63.50;;;;;;4995237;28;20084;-84
2022/07/12 13:09:33;;;;;;;0.73;0.13;;;32.80;65.30;;;;;;4979216;28;20411;-84
2022/07/12 13:11:59;;;;;;;0.28;0.10;;;32.90;65.80;;;;;;5013804;28;20049;-83
2022/07/12 13:14:25;;;;;;;0.20;0.10;;;33.30;64.00;;;;;;4996414;28;20042;-83
2022/07/12 13:16:51;;;;;;;0.50;0.10;;;33.40;63.00;;;;;;4980438;28;20042;-83
2022/07/12 13:19:17;;;;;;;1.05;0.10;;;33.50;61.80;;;;;;4996346;28;20040;-84
2022/07/12 13:21:43;;;;;;;1.10;0.10;;;33.50;60.10;;;;;;4996903;28;20050;-84
2022/07/12 13:24:08;;;;;;;0.17;0.05;;;33.50;60.50;;;;;;4997417;28;20044;-83
2022/07/12 13:26:34;;;;;;;1.13;0.10;;;33.50;59.20;;;;;;4996691;28;20553;-84
2022/07/12 13:29:00;;;;;;;2.05;1.08;;;33.60;59.00;;;;;;4996659;28;20500;-84
2022/07/12 13:31:26;;;;;;;0.40;0.20;;;33.50;59.60;;;;;;4981046;28;20038;-83
2022/07/12 13:33:53;;;;;;;1.20;0.40;;;33.20;57.00;;;;;;4996666;28;20034;-84
2022/07/12 13:36:20;;;;;;;0.70;0.20;;;32.90;58.40;;;;;;4980459;28;20042;-83
2022/07/12 13:38:46;;;;;;;1.95;0.10;;;32.90;59.30;;;;;;4981153;28;20046;-83
2022/07/12 13:41:11;;;;;;;0.55;0.10;;;32.80;59.80;;;;;;4988365;28;20041;-83
2022/07/12 13:43:37;;;;;;;1.75;0.10;;;32.70;60.10;;;;;;4999528;28;20103;-84
2022/07/12 13:46:03;;;;;;;1.13;0.10;;;32.60;58.40;;;;;;5016105;28;20041;-83
2022/07/12 13:48:28;;;;;;;0.63;0.10;;;32.60;57.40;;;;;;5016101;28;20033;-85
2022/07/12 13:50:54;;;;;;;0.60;0.10;;;32.60;59.50;;;;;;4998790;28;20165;-84
2022/07/12 13:53:19;;;;;;;0.68;0.10;;;32.40;59.80;;;;;;5004761;28;20037;-85
2022/07/12 13:55:46;;;;;;;0.20;0.00;;;32.40;59.10;;;;;;5015914;28;20080;-85